Time;durP1;ratioP1;P1;durP2;ratioP2;P2;SDS_P1;SDS_P2;PMS_P1;PMS_P2;Temp;Humidity;BMP_temperature;BMP_pressure;BME280_temperature;BME280_humidity;BME280_pressure;Samples;Min_cycle;Max_cycle;Signal;HPM_P1;HPM_P2
2022/08/24 00:02:00;;;;;;;;;;;20.50;75.50;;;;;;5058521;28;19912;-52
2022/08/24 00:04:25;;;;;;;;;;;20.50;75.20;;;;;;5058471;28;19909;-49
2022/08/24 00:06:51;;;;;;;;;;;20.60;74.70;;;;;;5058425;28;19909;-51
2022/08/24 00:09:17;;;;;;;;;;;20.60;76.40;;;;;;5057912;28;20275;-49
2022/08/24 00:11:43;;;;;;;;;;;20.60;75.20;;;;;;5058420;28;20405;-52
2022/08/24 00:14:10;;;;;;;;;;;20.60;75.20;;;;;;5058320;28;19912;-48
2022/08/24 00:16:35;;;;;;;;;;;20.60;75.70;;;;;;5058303;28;19983;-54
2022/08/24 00:19:01;;;;;;;;;;;20.70;76.90;;;;;;5058572;28;20465;-49
2022/08/24 00:21:27;;;;;;;;;;;20.70;75.70;;;;;;5058475;28;19915;-51
2022/08/24 00:23:52;;;;;;;;;;;20.70;76.40;;;;;;5058167;28;19916;-53
2022/08/24 00:26:18;;;;;;;;;;;20.70;75.80;;;;;;5058377;28;19913;-52
2022/08/24 00:28:44;;;;;;;;;;;20.70;75.50;;;;;;5058117;28;19909;-48
2022/08/24 00:31:10;;;;;;;;;;;20.70;75.30;;;;;;5058100;28;20395;-50
2022/08/24 00:33:35;;;;;;;;;;;20.70;75.90;;;;;;5058019;28;19909;-49
2022/08/24 00:36:01;;;;;;;;;;;20.70;76.90;;;;;;5058213;28;19916;-51
2022/08/24 00:38:27;;;;;;;;;;;20.70;75.70;;;;;;5058421;28;19908;-54
2022/08/24 00:40:53;;;;;;;;;;;20.70;76.10;;;;;;5058056;28;19916;-50
2022/08/24 00:43:20;;;;;;;;;;;20.60;76.20;;;;;;5058118;28;19944;-51
2022/08/24 00:45:46;;;;;;;;;;;20.60;75.70;;;;;;5057722;28;19908;-50
2022/08/24 00:48:18;;;;;;;;;;;20.60;74.90;;;;;;5056534;28;20324;-52
2022/08/24 00:50:43;;;;;;;;;;;20.60;75.70;;;;;;5057962;28;20000;-51
2022/08/24 00:53:29;;;;;;;;;;;20.60;76.60;;;;;;5057811;28;19940;-51
2022/08/24 00:55:57;;;;;;;;;;;20.60;77.30;;;;;;5057234;28;19912;-52
2022/08/24 00:58:24;;;;;;;;;;;20.60;76.00;;;;;;5057949;28;19952;-49
2022/08/24 01:00:53;;;;;;;;;;;20.60;76.30;;;;;;5057852;28;19913;-52
2022/08/24 01:03:19;;;;;;;;;;;20.60;75.90;;;;;;5057879;28;19913;-49
2022/08/24 01:05:46;;;;;;;;;;;20.50;77.20;;;;;;5056384;28;19915;-51
2022/08/24 01:08:12;;;;;;;;;;;20.50;77.30;;;;;;5057493;28;19909;-53
2022/08/24 01:10:43;;;;;;;;;;;20.50;76.30;;;;;;5058002;28;20264;-49
2022/08/24 01:13:10;;;;;;;;;;;20.60;77.00;;;;;;5058093;28;19909;-49
2022/08/24 01:15:37;;;;;;;;;;;20.60;76.60;;;;;;5057316;28;19935;-51
2022/08/24 01:20:52;;;;;;;;;;;20.60;76.40;;;;;;5060276;28;19935;-47
2022/08/24 01:23:33;;;;;;;;;;;20.60;76.50;;;;;;5061540;28;20364;-50
2022/08/24 01:25:59;;;;;;;;;;;20.60;77.60;;;;;;5061978;28;19937;-51
2022/08/24 01:28:25;;;;;;;;;;;20.60;76.20;;;;;;5061464;28;20007;-51
2022/08/24 01:30:51;;;;;;;;;;;20.60;76.10;;;;;;5061737;28;19909;-53
2022/08/24 01:33:26;;;;;;;;;;;20.60;76.70;;;;;;5061964;28;19909;-53
2022/08/24 01:36:10;;;;;;;;;;;20.60;75.90;;;;;;5061276;28;20003;-53
2022/08/24 01:38:35;;;;;;;;;;;20.50;77.90;;;;;;5061295;28;19916;-49
2022/08/24 01:41:02;;;;;;;;;;;20.50;77.70;;;;;;5059785;28;19909;-51
2022/08/24 01:43:28;;;;;;;;;;;20.60;76.40;;;;;;5061180;28;19941;-50
2022/08/24 01:45:54;;;;;;;;;;;20.60;76.30;;;;;;5059830;28;19959;-52
2022/08/24 01:48:20;;;;;;;;;;;20.60;78.60;;;;;;5061042;28;20379;-51
2022/08/24 01:50:46;;;;;;;;;;;20.60;78.30;;;;;;5061078;28;19948;-53
2022/08/24 01:53:11;;;;;;;;;;;20.60;78.80;;;;;;5060197;28;20273;-51
2022/08/24 01:55:37;;;;;;;;;;;20.50;77.40;;;;;;5059439;28;19913;-51
2022/08/24 01:58:03;;;;;;;;;;;20.50;77.70;;;;;;5060640;28;20418;-51
2022/08/24 02:00:29;;;;;;;;;;;20.50;76.50;;;;;;5061039;28;19920;-48
2022/08/24 02:02:55;;;;;;;;;;;20.50;77.50;;;;;;5060796;28;19916;-53
2022/08/24 02:05:22;;;;;;;;;;;20.40;78.80;;;;;;5061128;28;19909;-51
2022/08/24 02:07:49;;;;;;;;;;;20.40;79.70;;;;;;5060923;28;19916;-51
2022/08/24 02:10:14;;;;;;;;;;;20.30;77.60;;;;;;5060698;28;19909;-48
2022/08/24 02:12:41;;;;;;;;;;;20.30;77.80;;;;;;5060549;28;19963;-52
2022/08/24 02:15:08;;;;;;;;;;;20.30;78.50;;;;;;5061023;28;19913;-50
2022/08/24 02:17:34;;;;;;;;;;;20.30;79.70;;;;;;5060743;28;19939;-51
2022/08/24 02:20:01;;;;;;;;;;;20.30;80.20;;;;;;5060545;28;19958;-54
2022/08/24 02:22:26;;;;;;;;;;;20.30;77.60;;;;;;5060380;28;19909;-52
2022/08/24 02:24:52;;;;;;;;;;;20.30;78.30;;;;;;5060457;28;19958;-50
2022/08/24 02:27:17;;;;;;;;;;;20.30;79.50;;;;;;5060263;28;19912;-52
2022/08/24 02:29:43;;;;;;;;;;;20.30;78.50;;;;;;5060825;28;19913;-52
2022/08/24 02:32:10;;;;;;;;;;;20.30;79.00;;;;;;5058484;28;19958;-51
2022/08/24 02:34:35;;;;;;;;;;;20.20;79.20;;;;;;5060036;28;19909;-51
2022/08/24 02:37:01;;;;;;;;;;;20.30;80.60;;;;;;5058808;28;19912;-52
2022/08/24 02:39:27;;;;;;;;;;;20.20;78.80;;;;;;5060229;28;19909;-52
2022/08/24 02:41:52;;;;;;;;;;;20.20;79.70;;;;;;5060116;28;19909;-50
2022/08/24 02:44:18;;;;;;;;;;;20.20;77.90;;;;;;5060317;28;20364;-48
2022/08/24 02:46:44;;;;;;;;;;;20.20;78.80;;;;;;5060658;28;19909;-51
2022/08/24 02:49:10;;;;;;;;;;;20.20;77.80;;;;;;5060156;28;19916;-49
2022/08/24 02:51:36;;;;;;;;;;;20.10;78.30;;;;;;5060159;28;19913;-48
2022/08/24 02:54:02;;;;;;;;;;;20.10;77.50;;;;;;5059874;28;19909;-49
2022/08/24 02:56:30;;;;;;;;;;;20.00;77.20;;;;;;5059680;28;19923;-53
2022/08/24 02:58:56;;;;;;;;;;;20.10;79.60;;;;;;5059982;28;19920;-52
2022/08/24 03:01:22;;;;;;;;;;;20.00;80.00;;;;;;5058727;28;20280;-53
2022/08/24 03:03:48;;;;;;;;;;;19.90;77.50;;;;;;5059930;28;19908;-49
2022/08/24 03:06:13;;;;;;;;;;;19.90;78.00;;;;;;5059837;28;20295;-50
2022/08/24 03:08:39;;;;;;;;;;;19.90;77.60;;;;;;5059668;28;19920;-54
2022/08/24 03:11:07;;;;;;;;;;;19.80;80.50;;;;;;5059495;28;20261;-50
2022/08/24 03:13:33;;;;;;;;;;;19.80;77.50;;;;;;5059584;28;20393;-51
2022/08/24 03:15:59;;;;;;;;;;;19.80;79.70;;;;;;5059432;28;19974;-52
2022/08/24 03:18:25;;;;;;;;;;;19.70;78.80;;;;;;5059876;28;19909;-49
2022/08/24 03:20:51;;;;;;;;;;;19.60;78.00;;;;;;5058103;28;19987;-50
2022/08/24 03:23:17;;;;;;;;;;;19.60;78.10;;;;;;5059689;28;19909;-53
2022/08/24 03:25:43;;;;;;;;;;;19.60;78.40;;;;;;5059305;28;20329;-50
2022/08/24 03:28:08;;;;;;;;;;;19.60;79.10;;;;;;5059303;28;19909;-51
2022/08/24 03:30:34;;;;;;;;;;;19.60;79.80;;;;;;5059172;28;19915;-50
2022/08/24 03:33:00;;;;;;;;;;;19.50;77.90;;;;;;5059297;28;19913;-50
2022/08/24 03:35:25;;;;;;;;;;;19.40;77.90;;;;;;5059527;28;19917;-52
2022/08/24 03:37:51;;;;;;;;;;;19.40;80.10;;;;;;5059517;28;20288;-53
2022/08/24 03:40:19;;;;;;;;;;;19.40;81.80;;;;;;5058966;28;19909;-49
2022/08/24 03:42:44;;;;;;;;;;;19.30;79.00;;;;;;5057899;28;20368;-51
2022/08/24 03:45:10;;;;;;;;;;;19.30;78.60;;;;;;5059357;28;19967;-52
2022/08/24 03:47:35;;;;;;;;;;;19.30;79.00;;;;;;5058903;28;20398;-52
2022/08/24 03:50:02;;;;;;;;;;;19.30;79.00;;;;;;5059032;28;19909;-50
2022/08/24 03:52:27;;;;;;;;;;;19.30;81.50;;;;;;5058768;28;19913;-54
2022/08/24 03:54:53;;;;;;;;;;;19.30;81.90;;;;;;5058652;28;19908;-52
2022/08/24 03:57:19;;;;;;;;;;;19.30;79.40;;;;;;5058741;28;19931;-51
2022/08/24 03:59:44;;;;;;;;;;;19.30;80.90;;;;;;5059016;28;20325;-47
2022/08/24 04:02:11;;;;;;;;;;;19.30;82.60;;;;;;5057279;28;19915;-48
2022/08/24 04:04:36;;;;;;;;;;;19.30;80.80;;;;;;5058570;28;20004;-52
2022/08/24 04:07:03;;;;;;;;;;;19.30;81.80;;;;;;5058668;28;19948;-48
2022/08/24 04:09:29;;;;;;;;;;;19.30;80.60;;;;;;5058664;28;19908;-50
2022/08/24 04:11:54;;;;;;;;;;;19.30;81.70;;;;;;5058610;28;19992;-50
2022/08/24 04:14:20;;;;;;;;;;;19.40;82.60;;;;;;5058589;28;20279;-49
2022/08/24 04:16:45;;;;;;;;;;;19.40;83.60;;;;;;5058483;28;19920;-51
2022/08/24 04:19:14;;;;;;;;;;;19.40;81.70;;;;;;5058228;28;19912;-50
2022/08/24 04:21:40;;;;;;;;;;;19.40;81.70;;;;;;5058461;28;19908;-49
2022/08/24 04:24:07;;;;;;;;;;;19.40;80.70;;;;;;5058119;28;20319;-47
2022/08/24 04:26:34;;;;;;;;;;;19.40;83.00;;;;;;5058317;28;19977;-48
2022/08/24 04:29:01;;;;;;;;;;;19.40;80.30;;;;;;5058448;28;19958;-52
2022/08/24 04:31:28;;;;;;;;;;;19.40;83.50;;;;;;5058329;28;19908;-51
2022/08/24 04:33:54;;;;;;;;;;;19.30;83.70;;;;;;5057576;28;19908;-53
2022/08/24 04:36:20;;;;;;;;;;;19.30;81.10;;;;;;5057066;28;20483;-53
2022/08/24 04:38:46;;;;;;;;;;;19.30;80.70;;;;;;5058126;28;19909;-49
2022/08/24 04:41:13;;;;;;;;;;;19.30;80.40;;;;;;5058089;28;20386;-51
2022/08/24 04:43:41;;;;;;;;;;;19.30;83.10;;;;;;5057999;28;19909;-49
2022/08/24 04:46:07;;;;;;;;;;;19.30;80.40;;;;;;5057858;28;19916;-47
2022/08/24 04:48:34;;;;;;;;;;;19.30;81.00;;;;;;5057924;28;19909;-54
2022/08/24 04:51:06;;;;;;;;;;;19.30;80.40;;;;;;5058068;28;19928;-52
2022/08/24 04:53:32;;;;;;;;;;;19.30;82.10;;;;;;5056234;28;19967;-50
2022/08/24 04:55:58;;;;;;;;;;;19.30;81.70;;;;;;5058024;28;19916;-53
2022/08/24 04:58:23;;;;;;;;;;;19.40;82.00;;;;;;5057268;28;19928;-50
2022/08/24 05:00:49;;;;;;;;;;;19.40;82.80;;;;;;5057850;28;19913;-51
2022/08/24 05:03:15;;;;;;;;;;;19.40;81.30;;;;;;5057649;28;19952;-50
2022/08/24 05:05:44;;;;;;;;;;;19.40;81.50;;;;;;5057464;28;19915;-54
2022/08/24 05:08:10;;;;;;;;;;;19.40;81.30;;;;;;5057580;28;20416;-47
2022/08/24 05:10:37;;;;;;;;;;;19.40;83.60;;;;;;5056138;28;19916;-50
2022/08/24 05:13:03;;;;;;;;;;;19.40;84.60;;;;;;5057670;28;19909;-47
2022/08/24 05:15:30;;;;;;;;;;;19.40;84.10;;;;;;5057992;28;19924;-50
2022/08/24 05:17:55;;;;;;;;;;;19.40;82.50;;;;;;5056241;28;19909;-51
2022/08/24 05:20:21;;;;;;;;;;;19.50;81.80;;;;;;5057502;28;19916;-50
2022/08/24 05:22:47;;;;;;;;;;;19.50;84.10;;;;;;5057548;28;20364;-50
2022/08/24 05:25:13;;;;;;;;;;;19.50;82.60;;;;;;5057929;28;19909;-50
2022/08/24 05:27:39;;;;;;;;;;;19.50;83.50;;;;;;5057537;28;20080;-50
2022/08/24 05:30:05;;;;;;;;;;;19.50;84.60;;;;;;5057724;28;20364;-49
2022/08/24 05:32:30;;;;;;;;;;;19.50;83.00;;;;;;5057408;28;19931;-49
2022/08/24 05:34:58;;;;;;;;;;;19.50;84.50;;;;;;5057653;28;19913;-52
2022/08/24 05:37:24;;;;;;;;;;;19.50;82.70;;;;;;5057411;28;19908;-52
2022/08/24 05:39:49;;;;;;;;;;;19.50;83.30;;;;;;5057180;28;20307;-54
2022/08/24 05:42:15;;;;;;;;;;;19.60;82.50;;;;;;5057136;28;19915;-48
2022/08/24 05:44:40;;;;;;;;;;;19.60;84.60;;;;;;5057346;28;19963;-52
2022/08/24 05:47:06;;;;;;;;;;;19.60;82.60;;;;;;5057170;28;20423;-48
2022/08/24 05:49:31;;;;;;;;;;;19.60;82.50;;;;;;5057196;28;19932;-49
2022/08/24 05:51:57;;;;;;;;;;;19.60;84.60;;;;;;5057371;28;19917;-50
2022/08/24 05:54:25;;;;;;;;;;;19.70;82.60;;;;;;5057436;28;19993;-52
2022/08/24 05:56:51;;;;;;;;;;;19.70;84.40;;;;;;5056801;28;19921;-50
2022/08/24 05:59:18;;;;;;;;;;;19.70;84.60;;;;;;5057076;28;20007;-53
2022/08/24 06:01:44;;;;;;;;;;;19.70;82.70;;;;;;5057081;28;19938;-51
2022/08/24 06:04:09;;;;;;;;;;;19.80;83.70;;;;;;5056303;28;20388;-52
2022/08/24 06:06:35;;;;;;;;;;;19.70;83.00;;;;;;5058778;28;19913;-50
2022/08/24 06:09:01;;;;;;;;;;;19.80;82.70;;;;;;5066216;28;19962;-49
2022/08/24 06:11:28;;;;;;;;;;;19.80;83.50;;;;;;5080525;28;20418;-52
2022/08/24 06:13:56;;;;;;;;;;;19.80;84.80;;;;;;5080509;28;19908;-51
2022/08/24 06:16:22;;;;;;;;;;;19.80;83.80;;;;;;5080187;28;19934;-54
2022/08/24 06:18:49;;;;;;;;;;;19.90;83.10;;;;;;5080305;28;19908;-49
2022/08/24 06:21:16;;;;;;;;;;;19.90;84.40;;;;;;5080500;28;20398;-50
2022/08/24 06:23:43;;;;;;;;;;;19.90;83.90;;;;;;5080059;28;19909;-52
2022/08/24 06:28:54;;;;;;;;;;;19.90;85.00;;;;;;5080909;28;19916;-47
2022/08/24 06:31:20;;;;;;;;;;;19.90;83.00;;;;;;5080094;28;20436;-52
2022/08/24 06:33:46;;;;;;;;;;;19.90;83.80;;;;;;5079868;28;19915;-49
2022/08/24 06:36:13;;;;;;;;;;;19.90;82.90;;;;;;5078361;28;20286;-52
2022/08/24 06:38:38;;;;;;;;;;;19.90;82.40;;;;;;5080145;28;19908;-46
2022/08/24 06:41:04;;;;;;;;;;;19.90;82.80;;;;;;5080193;28;19915;-50
2022/08/24 06:43:30;;;;;;;;;;;20.00;82.30;;;;;;5080310;28;19908;-49
2022/08/24 06:45:56;;;;;;;;;;;20.00;82.80;;;;;;5079835;28;19923;-49
2022/08/24 06:48:22;;;;;;;;;;;20.00;83.20;;;;;;5079962;28;19908;-51
2022/08/24 06:50:48;;;;;;;;;;;20.00;82.20;;;;;;5079841;28;19915;-51
2022/08/24 06:53:14;;;;;;;;;;;20.00;83.20;;;;;;5079796;28;19908;-53
2022/08/24 06:55:44;;;;;;;;;;;20.10;83.50;;;;;;5079709;28;19916;-47
2022/08/24 06:58:10;;;;;;;;;;;20.10;82.50;;;;;;5079415;28;20058;-49
2022/08/24 07:00:37;;;;;;;;;;;20.20;82.10;;;;;;5079686;28;19948;-48
2022/08/24 07:03:02;;;;;;;;;;;20.20;81.60;;;;;;5079862;28;19916;-52
2022/08/24 07:05:28;;;;;;;;;;;20.10;81.00;;;;;;5079473;28;19944;-50
2022/08/24 07:07:54;;;;;;;;;;;20.10;81.00;;;;;;5079713;28;20322;-51
2022/08/24 07:10:19;;;;;;;;;;;20.00;81.40;;;;;;5079545;28;19908;-52
2022/08/24 07:12:45;;;;;;;;;;;19.90;82.00;;;;;;5079304;28;19952;-53
2022/08/24 07:15:11;;;;;;;;;;;19.80;82.20;;;;;;5079229;28;19916;-54
2022/08/24 07:17:36;;;;;;;;;;;19.80;82.10;;;;;;5079376;28;19962;-48
2022/08/24 07:20:02;;;;;;;;;;;19.80;82.90;;;;;;5079218;28;19908;-51
2022/08/24 07:22:28;;;;;;;;;;;19.80;82.40;;;;;;5079136;28;19909;-50
2022/08/24 07:24:53;;;;;;;;;;;19.90;82.30;;;;;;5072693;28;19912;-50
2022/08/24 07:27:19;;;;;;;;;;;19.90;84.00;;;;;;5059631;28;19913;-47
2022/08/24 07:29:45;;;;;;;;;;;19.90;83.60;;;;;;5058932;28;19913;-54
2022/08/24 07:32:11;;;;;;;;;;;19.90;82.70;;;;;;5059255;28;19935;-51
2022/08/24 07:34:36;;;;;;;;;;;20.00;82.90;;;;;;5059294;28;19909;-50
2022/08/24 07:37:02;;;;;;;;;;;20.00;82.40;;;;;;5058764;28;19913;-50
2022/08/24 07:39:29;;;;;;;;;;;20.00;82.70;;;;;;5057484;28;19909;-50
2022/08/24 07:41:56;;;;;;;;;;;20.00;82.50;;;;;;5058799;28;19909;-53
2022/08/24 07:44:21;;;;;;;;;;;20.10;82.80;;;;;;5059549;28;19928;-53
2022/08/24 07:46:48;;;;;;;;;;;20.10;82.00;;;;;;5069521;28;20307;-50
2022/08/24 07:49:13;;;;;;;;;;;20.10;82.60;;;;;;5069169;28;20336;-55
2022/08/24 07:51:39;;;;;;;;;;;20.20;82.80;;;;;;5062561;28;19917;-50
2022/08/24 07:54:05;;;;;;;;;;;20.20;82.70;;;;;;5070272;28;20003;-49
2022/08/24 07:56:30;;;;;;;;;;;20.10;82.50;;;;;;5073739;28;19926;-54
2022/08/24 07:58:56;;;;;;;;;;;20.20;82.60;;;;;;5062916;28;19913;-52
2022/08/24 08:01:23;;;;;;;;;;;20.10;81.90;;;;;;5061496;28;19912;-54
2022/08/24 08:03:49;;;;;;;;;;;20.10;82.50;;;;;;5067014;28;20011;-48
2022/08/24 08:06:15;;;;;;;;;;;20.20;82.00;;;;;;5063456;28;19913;-49
2022/08/24 08:08:41;;;;;;;;;;;20.20;82.70;;;;;;5060183;28;19983;-52
2022/08/24 08:11:08;;;;;;;;;;;20.20;82.90;;;;;;5066844;28;20402;-54
2022/08/24 08:13:34;;;;;;;;;;;20.30;82.10;;;;;;5069868;28;19918;-50
2022/08/24 08:16:00;;;;;;;;;;;20.40;82.60;;;;;;5067490;28;19920;-49
2022/08/24 08:18:26;;;;;;;;;;;20.40;81.60;;;;;;5063643;28;20027;-53
2022/08/24 08:20:52;;;;;;;;;;;20.40;81.80;;;;;;5063026;28;20434;-54
2022/08/24 08:26:02;;;;;;;;;;;20.60;82.00;;;;;;5065946;28;19962;-52
2022/08/24 08:28:31;;;;;;;;;;;20.60;82.30;;;;;;5072832;28;19912;-51
2022/08/24 08:31:00;;;;;;;;;;;20.80;82.30;;;;;;5078035;28;19932;-52
2022/08/24 08:33:26;;;;;;;;;;;20.90;81.80;;;;;;5074719;28;19913;-51
2022/08/24 08:35:55;;;;;;;;;;;20.90;81.30;;;;;;5077691;28;19962;-55
2022/08/24 08:38:21;;;;;;;;;;;21.00;81.40;;;;;;5059252;28;20011;-52
2022/08/24 08:41:20;;;;;;;;;;;21.10;82.10;;;;;;5058850;28;19974;-49
2022/08/24 08:43:54;;;;;;;;;;;21.20;80.80;;;;;;5033034;28;19915;-54
2022/08/24 08:46:38;;;;;;;;;;;21.30;81.60;;;;;;5057567;28;19909;-50
2022/08/24 08:49:16;;;;;;;;;;;21.40;80.20;;;;;;5056063;28;19916;-52
2022/08/24 08:52:07;;;;;;;;;;;21.40;79.70;;;;;;5057773;28;19995;-49
2022/08/24 08:55:02;;;;;;;;;;;21.50;80.50;;;;;;5057878;28;19964;-51
2022/08/24 08:57:40;;;;;;;;;;;21.60;79.50;;;;;;5048234;28;19932;-48
2022/08/24 09:00:11;;;;;;;;;;;21.80;80.20;;;;;;5057688;28;19909;-51
2022/08/24 09:02:43;;;;;;;;;;;21.90;80.60;;;;;;5062813;28;19913;-52
2022/08/24 09:05:12;;;;;;;;;;;21.90;76.50;;;;;;5075337;28;20330;-48
2022/08/24 09:07:44;;;;;;;;;;;21.90;78.00;;;;;;5071525;28;19912;-49
2022/08/24 09:10:27;;;;;;;;;;;21.70;77.50;;;;;;5068906;28;19982;-54
2022/08/24 09:13:05;;;;;;;;;;;21.70;80.10;;;;;;5060709;28;19920;-52
2022/08/24 09:15:34;;;;;;;;;;;21.70;78.20;;;;;;5066157;28;19924;-55
2022/08/24 09:18:00;;;;;;;;;;;21.50;77.90;;;;;;5068159;28;19912;-51
2022/08/24 09:20:45;;;;;;;;;;;21.40;79.20;;;;;;5065842;28;19987;-55
2022/08/24 09:23:29;;;;;;;;;;;21.40;78.80;;;;;;5063365;28;20349;-53
2022/08/24 09:26:10;;;;;;;;;;;21.50;78.40;;;;;;5068026;28;19913;-55
2022/08/24 09:28:36;;;;;;;;;;;21.60;80.50;;;;;;5055540;28;19912;-54
2022/08/24 09:31:08;;;;;;;;;;;21.70;78.20;;;;;;5056093;28;19955;-56
2022/08/24 09:33:43;;;;;;;;;;;21.90;78.40;;;;;;5056736;28;20002;-54
2022/08/24 09:36:16;;;;;;;;;;;22.00;76.40;;;;;;5057321;28;19913;-56
2022/08/24 09:39:00;;;;;;;;;;;22.40;76.80;;;;;;5074604;28;20395;-53
2022/08/24 09:41:54;;;;;;;;;;;22.40;75.50;;;;;;5076343;28;19909;-56
2022/08/24 09:44:59;;;;;;;;;;;22.20;76.00;;;;;;5079541;28;20402;-56
2022/08/24 09:47:39;;;;;;;;;;;22.30;75.80;;;;;;5017980;28;19943;-54
2022/08/24 09:50:23;;;;;;;;;;;22.50;76.20;;;;;;5018015;28;19909;-51
2022/08/24 09:53:13;;;;;;;;;;;22.60;73.50;;;;;;5060737;28;20284;-55
2022/08/24 09:55:57;;;;;;;;;;;22.50;74.80;;;;;;5080695;28;19912;-52
2022/08/24 09:58:23;;;;;;;;;;;22.50;75.70;;;;;;5078330;28;19927;-54
2022/08/24 10:00:51;;;;;;;;;;;22.50;75.60;;;;;;5080812;28;20389;-56
2022/08/24 10:03:21;;;;;;;;;;;22.40;76.80;;;;;;5080873;28;19916;-54
2022/08/24 10:05:50;;;;;;;;;;;22.60;75.10;;;;;;5080690;28;19909;-52
2022/08/24 10:08:34;;;;;;;;;;;22.70;73.70;;;;;;5080812;28;19966;-53
2022/08/24 10:11:18;;;;;;;;;;;22.50;73.10;;;;;;5080842;28;19920;-55
2022/08/24 10:13:47;;;;;;;;;;;22.30;74.80;;;;;;5080578;28;19915;-55
2022/08/24 10:16:13;;;;;;;;;;;22.30;75.60;;;;;;5080262;28;20375;-52
2022/08/24 10:18:38;;;;;;;;;;;22.10;75.60;;;;;;5080623;28;19954;-56
2022/08/24 10:21:11;;;;;;;;;;;22.10;76.50;;;;;;5080646;28;19908;-55
2022/08/24 10:23:48;;;;;;;;;;;22.00;76.30;;;;;;5080497;28;19931;-54
2022/08/24 10:26:32;;;;;;;;;;;22.30;76.60;;;;;;5080492;28;19999;-53
2022/08/24 10:29:27;;;;;;;;;;;22.50;75.30;;;;;;5080415;28;19923;-54
2022/08/24 10:32:10;;;;;;;;;;;22.50;74.20;;;;;;5080409;28;20328;-53
2022/08/24 10:34:39;;;;;;;;;;;22.30;74.70;;;;;;5080162;28;19908;-51
2022/08/24 10:37:23;;;;;;;;;;;22.20;74.60;;;;;;5079821;28;19912;-54
2022/08/24 10:39:50;;;;;;;;;;;22.00;75.90;;;;;;5080009;28;19908;-50
2022/08/24 10:45:31;;;;;;;;;;;22.10;75.90;;;;;;5058765;28;19909;-53
2022/08/24 10:48:03;;;;;;;;;;;22.30;76.40;;;;;;5079899;28;19931;-52
2022/08/24 10:50:44;;;;;;;;;;;22.40;76.70;;;;;;5079777;28;20311;-54
2022/08/24 10:53:18;;;;;;;;;;;22.80;76.30;;;;;;5079579;28;19913;-50
2022/08/24 10:55:44;;;;;;;;;;;23.10;77.00;;;;;;5079674;28;19913;-52
2022/08/24 10:58:19;;;;;;;;;;;23.40;72.80;;;;;;5079563;28;19925;-52
2022/08/24 11:00:45;;;;;;;;;;;23.20;73.00;;;;;;5079812;28;19908;-52
2022/08/24 11:03:21;;;;;;;;;;;23.10;71.70;;;;;;5079782;28;19908;-53
2022/08/24 11:05:48;;;;;;;;;;;23.30;71.80;;;;;;5079486;28;19908;-53
2022/08/24 11:08:19;;;;;;;;;;;23.10;73.00;;;;;;5079579;28;19909;-55
2022/08/24 11:11:01;;;;;;;;;;;23.00;72.20;;;;;;5079563;28;20344;-52
2022/08/24 11:13:26;;;;;;;;;;;22.80;73.00;;;;;;5079481;28;19915;-51
2022/08/24 11:15:57;;;;;;;;;;;23.20;76.00;;;;;;5078531;28;19913;-53
2022/08/24 11:18:23;;;;;;;;;;;23.50;73.20;;;;;;5079634;28;19909;-55
2022/08/24 11:20:50;;;;;;;;;;;23.60;70.40;;;;;;5079323;28;20003;-54
2022/08/24 11:23:23;;;;;;;;;;;23.60;72.60;;;;;;5079240;28;19908;-56
2022/08/24 11:25:55;;;;;;;;;;;23.70;71.80;;;;;;5079443;28;19909;-53
2022/08/24 11:28:35;;;;;;;;;;;24.00;70.00;;;;;;5079077;28;19909;-50
2022/08/24 11:31:02;;;;;;;;;;;24.20;71.60;;;;;;5079304;28;19915;-49
2022/08/24 11:33:45;;;;;;;;;;;24.70;68.90;;;;;;5079232;28;19962;-50
2022/08/24 11:36:22;;;;;;;;;;;25.00;70.50;;;;;;5078991;28;19958;-49
2022/08/24 11:38:48;;;;;;;;;;;26.00;74.90;;;;;;5078945;28;19915;-52
2022/08/24 11:41:24;;;;;;;;;;;26.60;66.80;;;;;;5079055;28;19909;-52
2022/08/24 11:44:04;;;;;;;;;;;26.10;64.90;;;;;;5078962;28;19908;-49
2022/08/24 11:46:35;;;;;;;;;;;26.50;69.00;;;;;;5078927;28;19912;-53
2022/08/24 11:49:21;;;;;;;;;;;26.90;66.00;;;;;;5078966;28;19909;-47
2022/08/24 11:51:58;;;;;;;;;;;26.70;70.80;;;;;;5078877;28;19909;-50
2022/08/24 11:54:31;;;;;;;;;;;27.70;65.90;;;;;;5078546;28;19913;-50
2022/08/24 11:57:05;;;;;;;;;;;27.40;66.30;;;;;;5078124;28;19985;-48
2022/08/24 11:59:57;;;;;;;;;;;27.50;62.20;;;;;;5078761;28;19995;-52
2022/08/24 12:02:38;;;;;;;;;;;27.00;64.70;;;;;;5075320;28;19950;-53
2022/08/24 12:05:04;;;;;;;;;;;27.90;66.20;;;;;;5077959;28;20306;-52
2022/08/24 12:07:36;;;;;;;;;;;28.50;62.20;;;;;;5078401;28;20003;-52
2022/08/24 12:10:04;;;;;;;;;;;28.50;63.30;;;;;;5078523;28;20291;-52
2022/08/24 12:12:33;;;;;;;;;;;28.20;60.40;;;;;;5078488;28;19913;-52
2022/08/24 12:15:08;;;;;;;;;;;28.10;62.00;;;;;;5078360;28;19909;-50
2022/08/24 12:17:43;;;;;;;;;;;28.30;60.70;;;;;;5078220;28;20272;-50
2022/08/24 12:20:21;;;;;;;;;;;29.10;66.70;;;;;;5078279;28;19908;-54
2022/08/24 12:22:47;;;;;;;;;;;30.00;66.40;;;;;;5078568;28;19915;-53
2022/08/24 12:27:58;;;;;;;;;;;31.00;56.20;;;;;;5078184;28;19989;-51
2022/08/24 12:30:25;;;;;;;;;;;30.80;57.40;;;;;;5078255;28;19909;-54
2022/08/24 12:32:53;;;;;;;;;;;31.40;58.80;;;;;;5077946;28;20431;-52
2022/08/24 12:35:57;;;;;;;;;;;31.70;62.20;;;;;;5077975;28;19915;-51
2022/08/24 12:38:44;;;;;;;;;;;31.70;54.40;;;;;;5016035;28;19910;-54
2022/08/24 12:41:23;;;;;;;;;;;32.30;55.30;;;;;;5016321;28;19975;-49
2022/08/24 12:43:57;;;;;;;;;;;32.60;54.60;;;;;;5059072;28;19908;-49
2022/08/24 12:46:24;;;;;;;;;;;33.00;53.60;;;;;;5077557;28;19915;-50
2022/08/24 12:48:55;;;;;;;;;;;32.90;54.60;;;;;;5077954;28;19951;-50
2022/08/24 12:51:26;;;;;;;;;;;32.70;48.60;;;;;;5077757;28;19959;-50
2022/08/24 12:53:51;;;;;;;;;;;32.00;50.00;;;;;;5077903;28;19915;-55
2022/08/24 12:56:20;;;;;;;;;;;31.60;53.70;;;;;;5076116;28;19912;-49
2022/08/24 12:58:46;;;;;;;;;;;31.80;51.90;;;;;;5077817;28;19912;-55
2022/08/24 13:01:13;;;;;;;;;;;32.40;54.30;;;;;;5077656;28;20003;-51
2022/08/24 13:03:40;;;;;;;;;;;32.70;53.40;;;;;;5077801;28;19947;-51
2022/08/24 13:06:09;;;;;;;;;;;32.50;50.90;;;;;;5077827;28;19916;-47
2022/08/24 13:08:39;;;;;;;;;;;32.50;53.20;;;;;;5077658;28;19955;-48
2022/08/24 13:11:09;;;;;;;;;;;32.20;49.60;;;;;;5077686;28;19908;-53
2022/08/24 13:13:40;;;;;;;;;;;32.00;49.90;;;;;;5077741;28;19917;-46
2022/08/24 13:16:05;;;;;;;;;;;32.20;52.40;;;;;;5080343;28;19936;-48
2022/08/24 13:19:06;;;;;;;;;;;32.60;54.30;;;;;;5082072;28;19909;-52
2022/08/24 13:21:37;;;;;;;;;;;32.20;49.00;;;;;;5019763;28;19909;-50
2022/08/24 13:24:22;;;;;;;;;;;31.60;48.40;;;;;;5070728;28;19999;-47
2022/08/24 13:26:47;;;;;;;;;;;31.20;51.40;;;;;;5081777;28;19916;-47
2022/08/24 13:29:14;;;;;;;;;;;30.60;50.80;;;;;;5081646;28;19908;-46
2022/08/24 13:31:47;;;;;;;;;;;30.20;51.20;;;;;;5081342;28;19913;-49
2022/08/24 13:34:14;;;;;;;;;;;30.30;53.00;;;;;;5081434;28;19916;-49
2022/08/24 13:36:43;;;;;;;;;;;30.90;52.60;;;;;;5081386;28;19912;-48
2022/08/24 13:39:28;;;;;;;;;;;30.60;50.70;;;;;;5080485;28;19908;-46
2022/08/24 13:42:03;;;;;;;;;;;29.90;51.40;;;;;;5081003;28;19909;-47
2022/08/24 13:44:48;;;;;;;;;;;29.40;52.60;;;;;;5080967;28;19999;-47
2022/08/24 13:47:17;;;;;;;;;;;29.70;56.80;;;;;;5081272;28;19908;-49
2022/08/24 13:50:01;;;;;;;;;;;30.40;51.10;;;;;;5080881;28;19908;-45
2022/08/24 13:52:31;;;;;;;;;;;29.90;53.50;;;;;;5081096;28;20001;-48
2022/08/24 13:55:26;;;;;;;;;;;30.50;55.50;;;;;;5080793;28;19908;-46
2022/08/24 13:58:11;;;;;;;;;;;31.30;55.60;;;;;;5067277;28;20418;-49
2022/08/24 14:00:42;;;;;;;;;;;31.80;53.60;;;;;;5080735;28;19909;-49
2022/08/24 14:03:17;;;;;;;;;;;32.00;52.20;;;;;;5081138;28;20344;-52
2022/08/24 14:05:43;;;;;;;;;;;32.30;54.10;;;;;;5080684;28;21143;-50
2022/08/24 14:08:11;;;;;;;;;;;32.70;50.90;;;;;;5080575;28;19908;-49
2022/08/24 14:10:37;;;;;;;;;;;32.60;47.60;;;;;;5080591;28;19954;-50
2022/08/24 14:13:19;;;;;;;;;;;32.60;52.30;;;;;;5080781;28;20387;-49
2022/08/24 14:18:55;;;;;;;;;;;33.10;50.90;;;;;;5080512;28;20429;-47
2022/08/24 14:21:23;;;;;;;;;;;33.00;49.70;;;;;;5080535;28;20286;-47
2022/08/24 14:23:50;;;;;;;;;;;32.70;48.00;;;;;;5080247;28;20276;-52
2022/08/24 14:26:40;;;;;;;;;;;31.60;49.50;;;;;;5079834;28;19909;-48
2022/08/24 14:29:18;;;;;;;;;;;30.40;50.90;;;;;;5079845;28;19995;-52
2022/08/24 14:31:59;;;;;;;;;;;29.80;53.70;;;;;;5079839;28;20237;-47
2022/08/24 14:34:47;;;;;;;;;;;30.40;52.70;;;;;;5080357;28;19909;-49
2022/08/24 14:37:13;;;;;;;;;;;29.80;52.80;;;;;;5079667;28;19912;-52
2022/08/24 14:39:38;;;;;;;;;;;29.70;54.20;;;;;;5080220;28;20354;-48
2022/08/24 14:42:13;;;;;;;;;;;29.90;54.50;;;;;;5078576;28;19934;-50
2022/08/24 14:44:57;;;;;;;;;;;29.90;53.10;;;;;;5080112;28;20253;-45
2022/08/24 14:47:23;;;;;;;;;;;29.70;53.10;;;;;;5080629;28;19909;-51
2022/08/24 14:50:06;;;;;;;;;;;29.70;53.80;;;;;;5079930;28;19920;-49